createdAt,value
2017-12-16T00:00:34.109Z,15.97
2017-12-16T00:03:02.937Z,15.47
2017-12-16T00:05:31.785Z,15.90
2017-12-16T00:08:00.614Z,16.87
2017-12-16T00:10:29.450Z,17.23
2017-12-16T00:12:58.319Z,15.80
2017-12-16T00:15:27.191Z,14.30
2017-12-16T00:17:56.012Z,16.70
2017-12-16T00:20:24.869Z,14.73
2017-12-16T00:22:53.766Z,18.30
2017-12-16T00:25:22.658Z,16.27
2017-12-16T00:27:51.500Z,11.90
2017-12-16T00:30:20.337Z,18.20
2017-12-16T00:32:49.156Z,15.77
2017-12-16T00:35:17.997Z,17.80
2017-12-16T00:37:46.846Z,15.57
2017-12-16T00:40:15.690Z,11.50
2017-12-16T00:42:44.533Z,11.90
2017-12-16T00:45:13.381Z,11.17
2017-12-16T00:47:42.671Z,11.90
2017-12-16T00:50:11.506Z,11.63
2017-12-16T00:52:40.333Z,10.03
2017-12-16T00:55:09.157Z,8.60
2017-12-16T00:57:38.013Z,10.80
2017-12-16T01:00:06.947Z,9.03
2017-12-16T01:02:35.769Z,11.70
2017-12-16T01:05:04.607Z,7.07
2017-12-16T01:07:33.598Z,7.60
2017-12-16T01:10:02.471Z,10.27
2017-12-16T01:12:31.304Z,8.17
2017-12-16T01:15:00.167Z,13.73
2017-12-16T01:17:28.991Z,17.80
2017-12-16T01:19:57.832Z,15.13
2017-12-16T01:22:26.663Z,13.10
2017-12-16T01:24:55.537Z,11.87
2017-12-16T01:27:24.366Z,11.50
2017-12-16T01:29:53.198Z,12.47
2017-12-16T01:32:22.103Z,10.07
2017-12-16T01:34:56.800Z,10.93
2017-12-16T01:37:31.624Z,10.20
2017-12-16T01:40:00.546Z,10.10
2017-12-16T01:42:29.378Z,10.80
2017-12-16T01:44:58.198Z,10.90
2017-12-16T01:47:27.037Z,12.37
2017-12-16T01:49:55.898Z,12.17
2017-12-16T01:52:24.732Z,10.63
2017-12-16T01:54:53.565Z,16.23
2017-12-16T01:57:22.477Z,12.30
2017-12-16T01:59:51.293Z,9.70
2017-12-16T02:02:20.157Z,10.43
2017-12-16T02:04:48.983Z,10.40
2017-12-16T02:07:17.819Z,10.97
2017-12-16T02:09:46.659Z,9.03
2017-12-16T02:12:15.849Z,10.60
2017-12-16T02:14:44.677Z,13.43
2017-12-16T02:17:13.509Z,11.83
2017-12-16T02:19:42.458Z,13.47
2017-12-16T02:22:11.289Z,12.10
2017-12-16T02:24:40.174Z,9.67
2017-12-16T02:27:09.000Z,12.87
2017-12-16T02:29:37.830Z,8.70
2017-12-16T02:32:06.994Z,10.57
2017-12-16T02:34:35.832Z,11.80
2017-12-16T02:37:04.656Z,12.30
2017-12-16T02:39:33.498Z,13.10
2017-12-16T02:42:02.332Z,11.20
2017-12-16T02:44:31.158Z,9.20
2017-12-16T02:46:59.994Z,8.63
2017-12-16T02:49:28.815Z,13.20
2017-12-16T02:51:57.642Z,7.90
2017-12-16T02:54:26.503Z,12.90
2017-12-16T02:56:55.358Z,10.93
2017-12-16T02:59:24.174Z,8.33
2017-12-16T03:01:53.034Z,9.67
2017-12-16T03:04:21.879Z,8.43
2017-12-16T03:06:50.705Z,9.80
2017-12-16T03:09:19.605Z,9.00
2017-12-16T03:11:48.439Z,13.20
2017-12-16T03:14:17.493Z,11.40
2017-12-16T03:16:46.329Z,10.40
2017-12-16T03:19:15.151Z,9.23
2017-12-16T03:21:43.970Z,11.03
2017-12-16T03:24:12.858Z,9.03
2017-12-16T03:26:41.739Z,9.30
2017-12-16T03:29:10.559Z,10.43
2017-12-16T03:31:39.394Z,15.00
2017-12-16T03:34:08.276Z,10.50
2017-12-16T03:36:37.538Z,11.03
2017-12-16T03:39:06.406Z,10.67
2017-12-16T03:41:35.298Z,13.33
2017-12-16T03:44:04.136Z,12.23
2017-12-16T03:46:33.031Z,13.03
2017-12-16T03:49:01.849Z,13.50
2017-12-16T03:51:30.758Z,10.47
2017-12-16T03:53:59.642Z,12.07
2017-12-16T03:56:28.468Z,12.20
2017-12-16T03:58:57.329Z,16.17
2017-12-16T04:01:26.173Z,18.43
2017-12-16T04:03:55.023Z,11.80
2017-12-16T04:06:23.893Z,13.27
2017-12-16T04:08:52.741Z,11.90
2017-12-16T04:11:21.569Z,13.90
2017-12-16T04:13:50.403Z,17.27
2017-12-16T04:16:19.259Z,11.87
2017-12-16T04:18:48.147Z,11.20
2017-12-16T04:21:16.971Z,9.30
2017-12-16T04:23:45.805Z,10.67
2017-12-16T04:26:14.725Z,11.60
2017-12-16T04:28:43.547Z,11.40
2017-12-16T04:31:12.386Z,13.60
2017-12-16T04:33:41.216Z,13.30
2017-12-16T04:36:10.078Z,13.10
2017-12-16T04:38:38.912Z,10.00
2017-12-16T04:41:07.738Z,9.87
2017-12-16T04:43:36.568Z,8.63
2017-12-16T04:46:05.402Z,16.43
2017-12-16T04:48:34.221Z,9.00
2017-12-16T04:51:03.081Z,10.93
2017-12-16T04:53:31.915Z,9.33
2017-12-16T04:56:00.733Z,7.73
2017-12-16T04:58:29.567Z,15.73
2017-12-16T05:00:58.412Z,26.00
2017-12-16T05:03:27.261Z,11.07
2017-12-16T05:05:56.083Z,12.60
2017-12-16T05:08:24.943Z,10.57
2017-12-16T05:10:53.768Z,13.40
2017-12-16T05:13:22.627Z,11.30
2017-12-16T05:15:51.465Z,15.57
2017-12-16T05:18:20.301Z,34.20
2017-12-16T05:20:49.131Z,13.77
2017-12-16T05:23:18.015Z,14.23
2017-12-16T05:25:46.907Z,13.63
2017-12-16T05:28:15.723Z,12.57
2017-12-16T05:30:44.618Z,11.40
2017-12-16T05:33:13.450Z,12.30
2017-12-16T05:35:42.276Z,15.27
2017-12-16T05:38:11.226Z,13.30
2017-12-16T05:40:40.130Z,45.23
2017-12-16T05:43:08.952Z,16.83
2017-12-16T05:45:37.792Z,12.83
2017-12-16T05:48:06.626Z,14.53
2017-12-16T05:50:35.462Z,13.37
2017-12-16T05:53:04.310Z,13.13
2017-12-16T05:55:33.134Z,14.57
2017-12-16T05:58:01.974Z,14.13
2017-12-16T06:00:30.838Z,12.20
2017-12-16T06:02:59.663Z,13.60
2017-12-16T06:05:28.539Z,10.90
2017-12-16T06:07:57.392Z,11.70
2017-12-16T06:10:26.213Z,12.20
2017-12-16T06:12:55.055Z,11.37
2017-12-16T06:15:23.981Z,11.17
2017-12-16T06:17:52.935Z,14.10
2017-12-16T06:20:21.757Z,16.10
2017-12-16T06:22:50.660Z,12.13
2017-12-16T06:25:19.536Z,12.77
2017-12-16T06:27:48.436Z,14.77
2017-12-16T06:30:17.331Z,56.23
2017-12-16T06:32:46.154Z,17.87
2017-12-16T06:35:14.990Z,11.43
2017-12-16T06:37:43.834Z,13.83
2017-12-16T06:40:12.672Z,13.90
2017-12-16T06:42:41.506Z,11.60
2017-12-16T06:45:10.338Z,13.20
2017-12-16T06:47:39.241Z,11.57
2017-12-16T06:50:08.076Z,12.87
2017-12-16T06:52:36.918Z,14.60
2017-12-16T06:55:05.834Z,12.50
2017-12-16T06:57:34.682Z,12.97
2017-12-16T07:00:03.562Z,11.53
2017-12-16T07:02:32.494Z,14.33
2017-12-16T07:05:01.323Z,12.40
2017-12-16T07:07:30.164Z,13.37
2017-12-16T07:09:59.078Z,12.73
2017-12-16T07:12:27.910Z,10.93
2017-12-16T07:14:56.858Z,14.07
2017-12-16T07:17:25.685Z,11.73
2017-12-16T07:19:54.517Z,13.03
2017-12-16T07:22:23.361Z,14.80
2017-12-16T07:24:52.199Z,11.37
2017-12-16T07:27:21.027Z,16.43
2017-12-16T07:29:50.514Z,12.33
2017-12-16T07:32:19.371Z,13.30
2017-12-16T07:34:48.202Z,12.70
2017-12-16T07:37:17.089Z,14.60
2017-12-16T07:39:45.910Z,11.63
2017-12-16T07:42:14.762Z,13.87
2017-12-16T07:44:43.628Z,12.00
2017-12-16T07:47:12.452Z,11.20
2017-12-16T07:49:41.324Z,11.77
2017-12-16T07:52:10.230Z,10.97
2017-12-16T07:54:39.064Z,12.13
2017-12-16T07:57:07.881Z,12.43
2017-12-16T07:59:36.734Z,22.20
2017-12-16T08:02:05.570Z,14.43
2017-12-16T08:04:34.413Z,12.63
2017-12-16T08:07:04.159Z,13.00
2017-12-16T08:09:33.086Z,27.13
2017-12-16T08:12:02.759Z,25.93
2017-12-16T08:14:31.619Z,28.10
2017-12-16T08:17:00.461Z,25.20
2017-12-16T08:19:29.299Z,22.17
2017-12-16T08:21:58.205Z,19.67
2017-12-16T08:24:27.035Z,19.93
2017-12-16T08:26:55.863Z,20.07
2017-12-16T08:29:24.705Z,20.60
2017-12-16T08:31:53.538Z,19.40
2017-12-16T08:34:22.367Z,12.20
2017-12-16T08:36:51.529Z,12.00
2017-12-16T08:39:20.354Z,12.37
2017-12-16T08:41:49.240Z,12.90
2017-12-16T08:44:18.074Z,13.27
2017-12-16T08:46:46.906Z,12.23
2017-12-16T08:49:15.726Z,12.10
2017-12-16T08:51:44.574Z,11.50
2017-12-16T08:54:13.444Z,38.80
2017-12-16T08:56:42.265Z,17.20
2017-12-16T08:59:11.113Z,13.47
2017-12-16T09:01:40.495Z,16.07
2017-12-16T09:04:09.323Z,16.23
2017-12-16T09:06:38.162Z,10.80
2017-12-16T09:09:07.022Z,8.97
2017-12-16T09:11:35.861Z,11.53
2017-12-16T09:14:04.693Z,10.00
2017-12-16T09:16:33.519Z,10.17
2017-12-16T09:19:02.337Z,10.63
2017-12-16T09:21:31.213Z,7.80
2017-12-16T09:24:00.043Z,9.70
2017-12-16T09:26:28.919Z,9.00
2017-12-16T09:28:57.805Z,8.47
2017-12-16T09:31:26.623Z,8.07
2017-12-16T09:33:55.437Z,9.47
2017-12-16T09:36:24.358Z,8.10
2017-12-16T09:38:53.706Z,8.87
2017-12-16T09:41:22.563Z,8.10
2017-12-16T09:43:51.392Z,10.00
2017-12-16T09:46:20.234Z,10.17
2017-12-16T09:48:49.065Z,13.10
2017-12-16T09:51:17.901Z,10.07
2017-12-16T09:53:46.718Z,12.00
2017-12-16T09:56:15.618Z,11.23
2017-12-16T09:58:44.477Z,12.90
2017-12-16T10:01:13.307Z,13.57
2017-12-16T10:03:42.190Z,13.87
2017-12-16T10:06:11.054Z,16.70
2017-12-16T10:08:39.882Z,14.03
2017-12-16T10:11:08.709Z,17.50
2017-12-16T10:13:37.639Z,18.27
2017-12-16T10:16:06.477Z,20.30
2017-12-16T10:18:35.304Z,17.10
2017-12-16T10:21:04.203Z,18.00
2017-12-16T10:23:33.088Z,16.67
2017-12-16T10:26:02.008Z,17.63
2017-12-16T10:28:30.871Z,17.47
2017-12-16T10:30:59.769Z,17.40
2017-12-16T10:33:28.597Z,14.90
2017-12-16T10:35:57.438Z,20.00
2017-12-16T10:38:26.331Z,15.60
2017-12-16T10:40:55.158Z,14.23
2017-12-16T10:43:23.994Z,16.90
2017-12-16T10:45:52.834Z,17.97
2017-12-16T10:48:21.704Z,16.30
2017-12-16T10:50:50.526Z,16.53
2017-12-16T10:53:19.377Z,17.20
2017-12-16T10:55:48.236Z,16.67
2017-12-16T10:58:17.163Z,20.73
2017-12-16T11:00:51.750Z,20.23
2017-12-16T11:03:20.598Z,19.60
2017-12-16T11:05:49.434Z,17.07
2017-12-16T11:08:18.316Z,17.80
2017-12-16T11:10:47.173Z,21.70
2017-12-16T11:13:16.020Z,17.30
2017-12-16T11:15:44.928Z,24.53
2017-12-16T11:18:13.773Z,28.83
2017-12-16T11:20:42.601Z,18.93
2017-12-16T11:23:11.825Z,38.73
2017-12-16T11:25:40.665Z,20.30
2017-12-16T11:28:09.586Z,16.07
2017-12-16T11:30:38.423Z,19.40
2017-12-16T11:33:07.275Z,16.93
2017-12-16T11:35:36.107Z,14.37
2017-12-16T11:38:05.654Z,16.60
2017-12-16T11:40:34.498Z,16.20
2017-12-16T11:43:03.392Z,17.80
2017-12-16T11:45:32.187Z,22.07
2017-12-16T11:48:01.131Z,19.93
2017-12-16T11:50:30.036Z,19.23
2017-12-16T11:52:58.966Z,18.33
2017-12-16T11:55:28.043Z,17.83
2017-12-16T11:57:56.870Z,18.50
2017-12-16T12:00:25.807Z,16.80
2017-12-16T12:02:54.649Z,16.27
2017-12-16T12:05:23.570Z,20.50
2017-12-16T12:07:52.402Z,16.90
2017-12-16T12:10:21.334Z,17.23
2017-12-16T12:12:50.165Z,20.23
2017-12-16T12:15:19.016Z,23.80
2017-12-16T12:17:47.850Z,22.00
2017-12-16T12:20:16.712Z,21.57
2017-12-16T12:22:45.546Z,19.10
2017-12-16T12:25:14.493Z,21.67
2017-12-16T12:27:43.717Z,20.37
2017-12-16T12:30:12.542Z,23.00
2017-12-16T12:32:41.821Z,23.87
2017-12-16T12:35:10.665Z,24.03
2017-12-16T12:37:39.563Z,22.83
2017-12-16T12:40:08.481Z,25.73
2017-12-16T12:42:37.322Z,24.23
2017-12-16T12:45:06.141Z,23.40
2017-12-16T12:47:35.027Z,24.23
2017-12-16T12:50:03.916Z,23.43
2017-12-16T12:52:32.804Z,24.33
2017-12-16T12:55:01.645Z,21.37
2017-12-16T12:57:30.506Z,27.90
2017-12-16T12:59:59.330Z,25.17
2017-12-16T13:02:28.494Z,27.50
2017-12-16T13:04:57.309Z,27.33
2017-12-16T13:07:26.144Z,26.43
2017-12-16T13:09:54.980Z,25.20
2017-12-16T13:12:23.834Z,27.10
2017-12-16T13:14:52.719Z,24.60
2017-12-16T13:17:21.558Z,26.77
2017-12-16T13:19:50.398Z,28.30
2017-12-16T13:22:19.221Z,30.47
2017-12-16T13:24:48.063Z,25.40
2017-12-16T13:27:16.977Z,24.50
2017-12-16T13:29:45.957Z,23.27
2017-12-16T13:32:14.864Z,25.90
2017-12-16T13:34:43.751Z,24.70
2017-12-16T13:37:12.637Z,28.80
2017-12-16T13:39:41.495Z,26.30
2017-12-16T13:42:10.417Z,24.10
2017-12-16T13:44:39.246Z,23.27
2017-12-16T13:47:08.087Z,23.13
2017-12-16T13:49:36.998Z,26.60
2017-12-16T13:52:05.834Z,31.57
2017-12-16T13:54:34.674Z,29.50
2017-12-16T13:57:03.528Z,27.90
2017-12-16T13:59:32.354Z,29.37
2017-12-16T14:02:01.190Z,24.80
2017-12-16T14:04:30.148Z,28.33
2017-12-16T14:06:58.986Z,30.53
2017-12-16T14:09:28.146Z,29.70
2017-12-16T14:11:57.010Z,26.23
2017-12-16T14:14:26.568Z,30.77
2017-12-16T14:16:55.410Z,29.13
2017-12-16T14:19:24.233Z,27.07
2017-12-16T14:21:53.091Z,43.50
2017-12-16T14:24:21.925Z,34.40
2017-12-16T14:26:50.769Z,22.10
2017-12-16T14:29:19.659Z,24.83
2017-12-16T14:31:48.497Z,27.63
2017-12-16T14:34:17.328Z,21.93
2017-12-16T14:36:46.167Z,22.80
2017-12-16T14:39:15.015Z,21.40
2017-12-16T14:41:43.851Z,24.03
2017-12-16T14:44:13.165Z,26.17
2017-12-16T14:46:41.999Z,24.37
2017-12-16T14:49:10.886Z,25.30
2017-12-16T14:51:39.806Z,23.90
2017-12-16T14:54:08.673Z,23.63
2017-12-16T14:56:37.565Z,25.43
2017-12-16T14:59:06.396Z,24.87
2017-12-16T15:01:35.244Z,27.17
2017-12-16T15:04:04.061Z,28.33
2017-12-16T15:06:32.898Z,24.87
2017-12-16T15:09:01.822Z,25.00
2017-12-16T15:11:30.710Z,24.90
2017-12-16T15:13:59.574Z,27.47
2017-12-16T15:16:28.437Z,26.17
2017-12-16T15:18:57.274Z,28.50
2017-12-16T15:21:26.175Z,26.00
2017-12-16T15:23:55.022Z,27.77
2017-12-16T15:26:23.867Z,31.30
2017-12-16T15:28:52.775Z,25.67
2017-12-16T15:31:21.627Z,34.50
2017-12-16T15:33:50.449Z,33.63
2017-12-16T15:36:19.313Z,32.67
2017-12-16T15:38:48.152Z,31.63
2017-12-16T15:41:16.991Z,34.70
2017-12-16T15:43:45.820Z,35.67
2017-12-16T15:46:14.653Z,30.87
2017-12-16T15:48:43.545Z,35.17
2017-12-16T15:51:12.370Z,33.90
2017-12-16T15:53:41.232Z,28.37
2017-12-16T15:56:10.066Z,29.20
2017-12-16T15:58:38.898Z,28.97
2017-12-16T16:01:07.741Z,24.70
2017-12-16T16:03:36.580Z,28.23
2017-12-16T16:06:05.414Z,27.87
2017-12-16T16:08:34.262Z,25.17
2017-12-16T16:11:03.102Z,26.17
2017-12-16T16:13:31.932Z,26.07
2017-12-16T16:16:00.772Z,26.73
2017-12-16T16:18:29.599Z,23.70
2017-12-16T16:20:58.436Z,22.93
2017-12-16T16:23:27.269Z,22.20
2017-12-16T16:25:56.094Z,25.17
2017-12-16T16:28:25.045Z,25.73
2017-12-16T16:30:53.891Z,26.90
2017-12-16T16:33:22.741Z,24.67
2017-12-16T16:35:51.565Z,27.17
2017-12-16T16:38:20.407Z,26.50
2017-12-16T16:40:49.361Z,24.33
2017-12-16T16:43:18.222Z,28.97
2017-12-16T16:45:47.070Z,24.87
2017-12-16T16:48:15.973Z,26.10
2017-12-16T16:50:44.814Z,24.20
2017-12-16T16:53:13.689Z,25.60
2017-12-16T16:55:42.530Z,31.03
2017-12-16T16:58:11.361Z,25.17
2017-12-16T17:00:40.210Z,29.23
2017-12-16T17:03:09.041Z,29.03
2017-12-16T17:05:37.874Z,29.07
2017-12-16T17:08:06.718Z,27.03
2017-12-16T17:10:35.554Z,28.13
2017-12-16T17:13:04.448Z,25.20
2017-12-16T17:15:33.324Z,25.57
2017-12-16T17:18:02.156Z,26.77
2017-12-16T17:20:30.990Z,25.33
2017-12-16T17:22:59.833Z,23.40
2017-12-16T17:25:28.671Z,25.30
2017-12-16T17:27:57.574Z,28.33
2017-12-16T17:30:26.421Z,27.40
2017-12-16T17:32:55.317Z,24.57
2017-12-16T17:35:24.145Z,24.70
2017-12-16T17:37:52.994Z,27.23
2017-12-16T17:40:21.828Z,23.43
2017-12-16T17:42:50.955Z,27.03
2017-12-16T17:45:19.799Z,23.37
2017-12-16T17:47:48.632Z,22.50
2017-12-16T17:50:17.583Z,23.50
2017-12-16T17:52:46.418Z,25.07
2017-12-16T17:55:15.249Z,29.60
2017-12-16T17:57:44.078Z,27.43
2017-12-16T18:00:12.930Z,29.23
2017-12-16T18:02:41.760Z,24.47
2017-12-16T18:05:10.760Z,25.63
2017-12-16T18:07:39.620Z,25.93
2017-12-16T18:10:09.300Z,25.30
2017-12-16T18:12:38.140Z,23.70
2017-12-16T18:15:06.993Z,26.47
2017-12-16T18:17:35.828Z,20.57
2017-12-16T18:20:04.667Z,26.33
2017-12-16T18:22:33.506Z,22.70
2017-12-16T18:25:02.327Z,21.80
2017-12-16T18:27:31.159Z,23.37
2017-12-16T18:30:00.026Z,27.10
2017-12-16T18:32:28.859Z,22.17
2017-12-16T18:34:57.690Z,22.30
2017-12-16T18:37:26.535Z,24.33
2017-12-16T18:39:55.367Z,24.80
2017-12-16T18:42:24.197Z,22.10
2017-12-16T18:44:53.079Z,26.37
2017-12-16T18:47:21.911Z,26.37
2017-12-16T18:49:50.943Z,21.87
2017-12-16T18:52:19.795Z,23.17
2017-12-16T18:54:48.626Z,24.63
2017-12-16T18:57:17.486Z,28.27
2017-12-16T18:59:46.331Z,25.67
2017-12-16T19:02:15.170Z,26.60
2017-12-16T19:04:44.002Z,26.90
2017-12-16T19:07:12.846Z,25.27
2017-12-16T19:09:41.674Z,27.73
2017-12-16T19:12:10.522Z,32.87
2017-12-16T19:14:39.395Z,29.07
2017-12-16T19:17:08.514Z,27.70
2017-12-16T19:19:37.346Z,29.03
2017-12-16T19:22:06.194Z,27.43
2017-12-16T19:24:35.022Z,25.67
2017-12-16T19:27:03.852Z,25.43
2017-12-16T19:29:32.738Z,29.70
2017-12-16T19:32:01.586Z,26.03
2017-12-16T19:34:30.430Z,25.03
2017-12-16T19:36:59.269Z,31.97
2017-12-16T19:39:28.469Z,26.10
2017-12-16T19:41:57.295Z,30.27
2017-12-16T19:44:26.148Z,30.20
2017-12-16T19:46:55.010Z,31.23
2017-12-16T19:49:23.847Z,23.93
2017-12-16T19:51:52.793Z,32.00
2017-12-16T19:54:21.635Z,33.80
2017-12-16T19:56:50.467Z,30.20
2017-12-16T19:59:19.315Z,33.70
2017-12-16T20:01:48.139Z,30.77
2017-12-16T20:04:16.970Z,30.50
2017-12-16T20:06:45.814Z,30.10
2017-12-16T20:09:14.658Z,35.93
2017-12-16T20:11:43.486Z,33.80
2017-12-16T20:14:12.327Z,33.17
2017-12-16T20:16:41.175Z,33.40
2017-12-16T20:19:10.007Z,30.20
2017-12-16T20:21:38.867Z,34.10
2017-12-16T20:24:07.705Z,31.17
2017-12-16T20:26:36.586Z,37.77
2017-12-16T20:29:05.434Z,34.13
2017-12-16T20:31:34.270Z,32.43
2017-12-16T20:39:48.765Z,34.00
2017-12-16T20:42:17.599Z,36.17
2017-12-16T20:44:46.489Z,34.77
2017-12-16T20:47:15.341Z,37.30
2017-12-16T20:49:44.179Z,35.53
2017-12-16T20:52:13.009Z,33.63
2017-12-16T20:54:41.909Z,37.30
2017-12-16T20:57:10.739Z,38.83
2017-12-16T20:59:39.574Z,39.70
2017-12-16T21:02:08.423Z,33.47
2017-12-16T21:04:37.255Z,42.40
2017-12-16T21:07:06.656Z,35.37
2017-12-16T21:09:35.506Z,37.67
2017-12-16T21:12:04.333Z,38.40
2017-12-16T21:14:33.198Z,42.40
2017-12-16T21:17:02.066Z,42.70
2017-12-16T21:19:30.894Z,40.87
2017-12-16T21:21:59.728Z,38.77
2017-12-16T21:24:28.636Z,35.80
2017-12-16T21:26:57.475Z,40.57
2017-12-16T21:29:26.307Z,37.57
2017-12-16T21:31:55.327Z,37.57
2017-12-16T21:34:24.153Z,38.67
2017-12-16T21:36:52.986Z,39.93
2017-12-16T21:39:21.839Z,37.70
2017-12-16T21:41:50.683Z,45.53
2017-12-16T21:44:19.524Z,36.90
2017-12-16T21:46:48.380Z,37.57
2017-12-16T21:49:17.231Z,36.20
2017-12-16T21:51:46.075Z,35.00
2017-12-16T21:54:14.924Z,43.30
2017-12-16T21:56:43.793Z,38.50
2017-12-16T21:59:12.631Z,46.60
2017-12-16T22:01:41.477Z,43.93
2017-12-16T22:04:10.310Z,39.13
2017-12-16T22:06:39.167Z,39.87
2017-12-16T22:09:08.082Z,39.67
2017-12-16T22:11:36.935Z,38.33
2017-12-16T22:14:05.758Z,41.40
2017-12-16T22:16:34.599Z,38.43
2017-12-16T22:19:03.434Z,38.43
2017-12-16T22:21:32.299Z,35.70
2017-12-16T22:24:01.142Z,35.87
2017-12-16T22:26:29.978Z,34.40
2017-12-16T22:28:58.806Z,30.50
2017-12-16T22:31:27.650Z,33.90
2017-12-16T22:33:57.494Z,37.83
2017-12-16T22:36:26.369Z,35.53
2017-12-16T22:38:55.220Z,42.07
2017-12-16T22:41:24.078Z,36.10
2017-12-16T22:43:52.939Z,37.17
2017-12-16T22:46:21.781Z,39.03
2017-12-16T22:48:50.617Z,38.03
2017-12-16T22:51:19.451Z,37.93
2017-12-16T22:53:48.299Z,33.00
2017-12-16T22:56:17.127Z,36.70
2017-12-16T22:58:46.019Z,38.50
2017-12-16T23:01:14.862Z,33.00
2017-12-16T23:03:43.726Z,35.53
2017-12-16T23:06:12.562Z,33.60
2017-12-16T23:08:41.409Z,31.97
2017-12-16T23:11:10.242Z,33.63
2017-12-16T23:13:39.060Z,34.00
2017-12-16T23:16:07.912Z,34.27
2017-12-16T23:18:36.746Z,35.57
2017-12-16T23:21:05.578Z,35.23
2017-12-16T23:23:34.438Z,30.60
2017-12-16T23:26:03.270Z,31.07
2017-12-16T23:28:32.115Z,37.57
2017-12-16T23:31:00.958Z,32.63
2017-12-16T23:33:29.791Z,32.93
2017-12-16T23:35:58.629Z,29.97
2017-12-16T23:38:27.474Z,31.50
2017-12-16T23:40:56.312Z,31.00
2017-12-16T23:43:25.163Z,30.20
2017-12-16T23:45:54.007Z,28.80
2017-12-16T23:48:22.849Z,28.73
2017-12-16T23:50:51.813Z,30.40
2017-12-16T23:53:20.659Z,29.80
2017-12-16T23:55:49.491Z,29.53
2017-12-16T23:58:19.063Z,28.17
